createdAt,value
2019-03-20T00:01:44.003Z,102135.13
2019-03-20T00:04:10.744Z,102136.41
2019-03-20T00:06:39.364Z,102138.25
2019-03-20T00:09:08.756Z,102137.59
2019-03-20T00:11:37.349Z,102134.23
2019-03-20T00:14:06.027Z,102141.38
2019-03-20T00:16:34.729Z,102145.48
2019-03-20T00:19:03.349Z,102141.28
2019-03-20T00:21:31.940Z,102137.07
2019-03-20T00:24:00.559Z,102136.94
2019-03-20T00:26:29.149Z,102128.77
2019-03-20T00:28:57.764Z,102132.53
2019-03-20T00:31:26.369Z,102141.23
2019-03-20T00:33:54.985Z,102129.90
2019-03-20T00:36:23.604Z,102135.93
2019-03-20T00:38:52.214Z,102134.16
2019-03-20T00:41:20.811Z,102132.74
2019-03-20T00:43:49.446Z,102129.95
2019-03-20T00:46:18.042Z,102133.50
2019-03-20T00:48:46.676Z,102136.34
2019-03-20T00:51:15.293Z,102131.02
2019-03-20T00:53:43.907Z,102131.02
2019-03-20T00:56:12.540Z,102139.02
2019-03-20T00:58:41.136Z,102137.81
2019-03-20T01:01:09.786Z,102142.55
2019-03-20T01:03:38.380Z,102138.44
2019-03-20T01:06:07.158Z,102140.02
2019-03-20T01:08:35.748Z,102140.94
2019-03-20T01:11:04.455Z,102140.62
2019-03-20T01:13:33.056Z,102145.75
2019-03-20T01:16:01.769Z,102140.27
2019-03-20T01:18:30.368Z,102136.83
2019-03-20T01:20:59.020Z,102130.05
2019-03-20T01:23:27.729Z,102124.13
2019-03-20T01:25:56.634Z,102129.13
2019-03-20T01:28:25.239Z,102126.97
2019-03-20T01:30:53.873Z,102123.44
2019-03-20T01:33:22.489Z,102123.27
2019-03-20T01:35:51.093Z,102125.45
2019-03-20T01:38:19.676Z,102128.80
2019-03-20T01:40:48.303Z,102134.25
2019-03-20T01:43:16.957Z,102134.64
2019-03-20T01:45:45.556Z,102134.31
2019-03-20T01:48:16.654Z,102130.59
2019-03-20T01:50:45.242Z,102130.00
2019-03-20T01:53:13.875Z,102125.20
2019-03-20T01:55:42.497Z,102127.19
2019-03-20T01:58:11.176Z,102128.02
2019-03-20T02:00:39.865Z,102137.59
2019-03-20T02:03:08.539Z,102133.19
2019-03-20T02:05:37.146Z,102133.58
2019-03-20T02:08:05.845Z,102131.66
2019-03-20T02:10:34.434Z,102127.96
2019-03-20T02:13:03.084Z,102127.26
2019-03-20T02:15:39.007Z,102135.30
2019-03-20T02:18:02.182Z,102141.08
2019-03-20T02:20:30.838Z,102138.69
2019-03-20T02:22:59.450Z,102141.17
2019-03-20T02:25:28.047Z,102135.58
2019-03-20T02:27:56.757Z,102151.04
2019-03-20T02:30:25.376Z,102143.80
2019-03-20T02:32:54.017Z,102147.19
2019-03-20T02:35:22.623Z,102149.75
2019-03-20T02:37:51.256Z,102152.72
2019-03-20T02:40:19.935Z,102154.22
2019-03-20T02:42:48.533Z,102154.77
2019-03-20T02:45:17.250Z,102155.07
2019-03-20T02:47:45.836Z,102160.41
2019-03-20T02:50:15.733Z,102170.25
2019-03-20T02:52:44.452Z,102167.08
2019-03-20T02:55:13.196Z,102165.73
2019-03-20T02:57:41.874Z,102165.93
2019-03-20T03:00:12.272Z,102165.19
2019-03-20T03:02:41.064Z,102164.08
2019-03-20T03:05:10.185Z,102165.30
2019-03-20T03:07:38.967Z,102162.67
2019-03-20T03:10:08.639Z,102164.23
2019-03-20T03:12:37.225Z,102167.40
2019-03-20T03:15:06.095Z,102163.59
2019-03-20T03:17:34.750Z,102169.58
2019-03-20T03:20:03.702Z,102171.56
2019-03-20T03:22:32.316Z,102164.02
2019-03-20T03:25:00.936Z,102169.28
2019-03-20T03:27:29.572Z,102175.84
2019-03-20T03:29:58.260Z,102176.33
2019-03-20T03:32:26.899Z,102174.03
2019-03-20T03:34:55.528Z,102172.09
2019-03-20T03:37:24.131Z,102180.28
2019-03-20T03:39:52.741Z,102164.11
2019-03-20T03:42:21.452Z,102172.22
2019-03-20T03:44:50.143Z,102171.25
2019-03-20T03:47:18.761Z,102170.34
2019-03-20T03:49:47.564Z,102170.91
2019-03-20T03:52:16.228Z,102169.70
2019-03-20T03:54:44.816Z,102170.20
2019-03-20T03:57:13.515Z,102171.47
2019-03-20T03:59:42.115Z,102178.03
2019-03-20T04:02:10.720Z,102179.74
2019-03-20T04:04:39.331Z,102182.29
2019-03-20T04:07:07.963Z,102191.20
2019-03-20T04:09:36.554Z,102191.72
2019-03-20T04:12:05.269Z,102187.53
2019-03-20T04:14:33.856Z,102190.02
2019-03-20T04:17:02.542Z,102187.45
2019-03-20T04:19:31.226Z,102194.11
2019-03-20T04:21:59.906Z,102196.91
2019-03-20T04:24:28.524Z,102203.70
2019-03-20T04:26:57.209Z,102211.81
2019-03-20T04:29:25.843Z,102213.84
2019-03-20T04:31:54.468Z,102205.66
2019-03-20T04:34:23.195Z,102205.96
2019-03-20T04:36:51.792Z,102206.42
2019-03-20T04:39:20.418Z,102206.87
2019-03-20T04:41:49.008Z,102203.25
2019-03-20T04:44:17.624Z,102206.65
2019-03-20T04:46:46.221Z,102205.73
2019-03-20T04:49:14.826Z,102201.84
2019-03-20T04:51:43.421Z,102201.62
2019-03-20T04:54:12.050Z,102208.95
2019-03-20T04:56:40.692Z,102206.11
2019-03-20T04:59:09.300Z,102211.95
2019-03-20T05:01:37.943Z,102215.89
2019-03-20T05:04:06.628Z,102222.77
2019-03-20T05:06:35.350Z,102228.73
2019-03-20T05:09:04.856Z,102240.88
2019-03-20T05:11:33.475Z,102246.64
2019-03-20T05:14:02.091Z,102241.33
2019-03-20T05:16:30.713Z,102235.82
2019-03-20T05:18:59.365Z,102237.63
2019-03-20T05:21:27.947Z,102242.09
2019-03-20T05:23:56.614Z,102241.33
2019-03-20T05:26:25.274Z,102249.44
2019-03-20T05:28:53.880Z,102252.21
2019-03-20T05:31:22.494Z,102254.10
2019-03-20T05:33:51.088Z,102251.06
2019-03-20T05:36:19.718Z,102254.48
2019-03-20T05:38:48.318Z,102266.58
2019-03-20T05:41:16.933Z,102257.52
2019-03-20T05:43:45.562Z,102265.03
2019-03-20T05:46:14.199Z,102266.98
2019-03-20T05:48:42.819Z,102268.34
2019-03-20T05:51:11.444Z,102276.77
2019-03-20T05:53:40.046Z,102278.78
2019-03-20T05:56:08.681Z,102276.79
2019-03-20T05:58:37.311Z,102286.81
2019-03-20T06:01:05.933Z,102290.98
2019-03-20T06:03:34.551Z,102293.77
2019-03-20T06:06:03.165Z,102289.67
2019-03-20T06:08:31.807Z,102295.47
2019-03-20T06:11:00.415Z,102300.50
2019-03-20T06:13:29.033Z,102298.87
2019-03-20T06:15:57.645Z,102300.50
2019-03-20T06:18:26.244Z,102304.81
2019-03-20T06:20:54.862Z,102290.13
2019-03-20T06:23:23.491Z,102292.67
2019-03-20T06:25:52.099Z,102295.84
2019-03-20T06:28:20.705Z,102301.77
2019-03-20T06:30:49.307Z,102296.92
2019-03-20T06:33:17.939Z,102307.34
2019-03-20T06:35:46.558Z,102307.13
2019-03-20T06:38:15.262Z,102307.57
2019-03-20T06:40:43.864Z,102310.55
2019-03-20T06:43:12.482Z,102303.51
2019-03-20T06:45:41.114Z,102312.48
2019-03-20T06:48:09.694Z,102316.64
2019-03-20T06:50:38.293Z,102315.45
2019-03-20T06:53:06.905Z,102321.09
2019-03-20T06:55:35.526Z,102321.16
2019-03-20T06:58:04.142Z,102328.37
2019-03-20T07:00:58.076Z,102324.55
2019-03-20T07:03:55.767Z,102338.70
2019-03-20T07:07:01.250Z,102338.98
2019-03-20T07:09:38.630Z,102338.93
2019-03-20T07:12:07.244Z,102333.98
2019-03-20T07:14:35.944Z,102338.25
2019-03-20T07:17:04.645Z,102343.88
2019-03-20T07:19:33.287Z,102329.32
2019-03-20T07:22:01.898Z,102335.99
2019-03-20T07:24:30.535Z,102335.83
2019-03-20T07:26:59.250Z,102334.69
2019-03-20T07:29:27.925Z,102342.43
2019-03-20T07:31:56.700Z,102343.36
2019-03-20T07:34:25.317Z,102347.25
2019-03-20T07:36:53.962Z,102345.53
2019-03-20T07:39:22.638Z,102337.36
2019-03-20T07:41:51.395Z,102340.75
2019-03-20T07:44:20.117Z,102332.16
2019-03-20T07:46:48.741Z,102341.20
2019-03-20T07:49:17.349Z,102344.20
2019-03-20T07:51:45.987Z,102346.55
2019-03-20T07:54:14.687Z,102340.48
2019-03-20T07:56:43.331Z,102342.94
2019-03-20T07:59:11.948Z,102346.58
2019-03-20T08:01:40.633Z,102345.61
2019-03-20T08:04:09.308Z,102349.00
2019-03-20T08:06:37.913Z,102348.24
2019-03-20T08:09:07.609Z,102358.24
2019-03-20T08:11:36.316Z,102356.92
2019-03-20T08:14:05.004Z,102364.23
2019-03-20T08:16:33.614Z,102363.77
2019-03-20T08:19:02.263Z,102370.50
2019-03-20T08:21:30.913Z,102371.91
2019-03-20T08:23:59.550Z,102372.44
2019-03-20T08:26:28.169Z,102381.05
2019-03-20T08:28:56.768Z,102382.19
2019-03-20T08:31:25.391Z,102389.60
2019-03-20T08:33:54.061Z,102390.91
2019-03-20T08:36:22.744Z,102388.70
2019-03-20T08:38:51.334Z,102395.80
2019-03-20T08:41:19.932Z,102396.02
2019-03-20T08:43:48.574Z,102390.73
2019-03-20T08:46:17.264Z,102394.28
2019-03-20T08:48:48.245Z,102394.48
2019-03-20T08:51:16.214Z,102392.37
2019-03-20T08:53:44.852Z,102388.82
2019-03-20T08:56:13.476Z,102392.28
2019-03-20T08:58:42.143Z,102392.27
2019-03-20T09:01:10.744Z,102383.53
2019-03-20T09:03:39.365Z,102394.58
2019-03-20T09:06:07.996Z,102397.61
2019-03-20T09:08:36.628Z,102390.88
2019-03-20T09:11:05.309Z,102394.55
2019-03-20T09:13:33.946Z,102395.30
2019-03-20T09:16:02.541Z,102397.27
2019-03-20T09:18:31.157Z,102398.02
2019-03-20T09:20:59.857Z,102397.83
2019-03-20T09:23:28.482Z,102396.81
2019-03-20T09:25:57.081Z,102394.16
2019-03-20T09:28:25.718Z,102399.37
2019-03-20T09:30:54.407Z,102396.85
2019-03-20T09:33:23.041Z,102389.98
2019-03-20T09:35:51.678Z,102394.69
2019-03-20T09:38:20.426Z,102396.30
2019-03-20T09:40:49.118Z,102400.64
2019-03-20T09:43:17.747Z,102398.10
2019-03-20T09:45:46.366Z,102400.50
2019-03-20T09:48:15.014Z,102403.02
2019-03-20T09:50:43.628Z,102403.00
2019-03-20T09:53:12.258Z,102397.69
2019-03-20T09:55:40.896Z,102400.89
2019-03-20T09:58:11.753Z,102393.98
2019-03-20T10:00:39.846Z,102395.49
2019-03-20T10:03:08.445Z,102395.97
2019-03-20T10:05:37.065Z,102393.97
2019-03-20T10:08:05.738Z,102389.83
2019-03-20T10:10:34.358Z,102395.97
2019-03-20T10:13:02.962Z,102395.58
2019-03-20T10:15:31.590Z,102390.14
2019-03-20T10:18:00.314Z,102395.14
2019-03-20T10:20:28.944Z,102393.33
2019-03-20T10:22:57.564Z,102392.40
2019-03-20T10:25:26.248Z,102395.95
2019-03-20T10:27:54.844Z,102398.39
2019-03-20T10:30:23.485Z,102392.54
2019-03-20T10:32:52.192Z,102394.66
2019-03-20T10:35:21.072Z,102393.94
2019-03-20T10:37:49.769Z,102388.45
2019-03-20T10:40:19.738Z,102392.55
2019-03-20T10:42:48.357Z,102392.65
2019-03-20T10:45:17.268Z,102386.97
2019-03-20T10:47:46.030Z,102383.66
2019-03-20T10:50:16.545Z,102391.03
2019-03-20T10:52:45.251Z,102385.67
2019-03-20T10:55:14.104Z,102383.25
2019-03-20T10:57:42.876Z,102381.83
2019-03-20T11:00:15.833Z,102379.54
2019-03-20T11:02:44.488Z,102375.87
2019-03-20T11:05:13.269Z,102371.14
2019-03-20T11:07:41.961Z,102362.97
2019-03-20T11:10:11.630Z,102358.17
2019-03-20T11:12:40.304Z,102360.53
2019-03-20T11:15:11.062Z,102360.59
2019-03-20T11:17:45.058Z,102364.45
2019-03-20T11:20:15.318Z,102360.87
2019-03-20T11:22:44.028Z,102364.17
2019-03-20T11:25:14.056Z,102361.19
2019-03-20T11:27:42.788Z,102355.39
2019-03-20T11:30:17.889Z,102352.22
2019-03-20T11:32:46.651Z,102354.58
2019-03-20T11:35:15.350Z,102346.80
2019-03-20T11:37:43.949Z,102349.17
2019-03-20T11:40:15.508Z,102346.69
2019-03-20T11:42:44.107Z,102348.68
2019-03-20T11:45:13.138Z,102347.67
2019-03-20T11:47:41.774Z,102344.05
2019-03-20T11:50:13.728Z,102339.55
2019-03-20T11:52:42.426Z,102336.34
2019-03-20T11:55:11.088Z,102333.59
2019-03-20T11:57:40.450Z,102338.24
2019-03-20T12:00:11.262Z,102333.22
2019-03-20T12:02:39.950Z,102324.28
2019-03-20T12:05:08.667Z,102324.34
2019-03-20T12:07:37.342Z,102317.31
2019-03-20T12:10:07.084Z,102316.92
2019-03-20T12:12:35.713Z,102312.96
2019-03-20T12:15:05.027Z,102313.29
2019-03-20T12:17:33.658Z,102305.02
2019-03-20T12:20:02.252Z,102308.09
2019-03-20T12:22:30.929Z,102294.49
2019-03-20T12:24:59.528Z,102291.92
2019-03-20T12:27:28.221Z,102292.20
2019-03-20T12:29:56.864Z,102297.23
2019-03-20T12:32:25.570Z,102296.57
2019-03-20T12:34:54.241Z,102292.78
2019-03-20T12:37:22.785Z,102285.41
2019-03-20T12:39:53.493Z,102297.48
2019-03-20T12:42:21.801Z,102291.82
2019-03-20T12:44:50.434Z,102288.52
2019-03-20T12:47:19.042Z,102295.30
2019-03-20T12:49:47.661Z,102283.31
2019-03-20T12:52:16.306Z,102285.13
2019-03-20T12:54:44.929Z,102285.91
2019-03-20T12:57:13.558Z,102280.00
2019-03-20T12:59:42.184Z,102276.52
2019-03-20T13:02:10.787Z,102285.85
2019-03-20T13:04:39.425Z,102278.27
2019-03-20T13:07:08.043Z,102278.88
2019-03-20T13:09:36.656Z,102271.55
2019-03-20T13:12:05.248Z,102276.42
2019-03-20T13:14:33.951Z,102273.79
2019-03-20T13:17:02.564Z,102274.34
2019-03-20T13:19:31.167Z,102267.30
2019-03-20T13:21:59.802Z,102261.19
2019-03-20T13:24:28.433Z,102260.22
2019-03-20T13:26:57.061Z,102262.39
2019-03-20T13:29:25.716Z,102259.53
2019-03-20T13:31:54.355Z,102257.34
2019-03-20T13:34:23.157Z,102255.33
2019-03-20T13:36:51.764Z,102258.45
2019-03-20T13:39:20.363Z,102255.27
2019-03-20T13:41:48.968Z,102255.45
2019-03-20T13:44:17.569Z,102262.38
2019-03-20T13:46:46.205Z,102261.05
2019-03-20T13:49:14.820Z,102252.17
2019-03-20T13:51:43.431Z,102248.64
2019-03-20T13:54:12.046Z,102248.22
2019-03-20T13:56:40.642Z,102246.62
2019-03-20T13:59:09.302Z,102242.08
2019-03-20T14:01:37.899Z,102237.81
2019-03-20T14:04:06.523Z,102242.34
2019-03-20T14:06:35.130Z,102245.88
2019-03-20T14:09:05.503Z,102249.63
2019-03-20T14:11:34.156Z,102245.95
2019-03-20T14:14:02.777Z,102239.92
2019-03-20T14:16:31.439Z,102251.18
2019-03-20T14:19:00.061Z,102240.44
2019-03-20T14:21:28.694Z,102240.28
2019-03-20T14:23:57.370Z,102244.64
2019-03-20T14:26:25.976Z,102247.02
2019-03-20T14:28:54.648Z,102239.09
2019-03-20T14:31:23.276Z,102236.40
2019-03-20T14:33:51.906Z,102234.89
2019-03-20T14:36:20.568Z,102240.27
2019-03-20T14:38:49.222Z,102238.41
2019-03-20T14:41:21.808Z,102238.75
2019-03-20T14:43:48.174Z,102242.30
2019-03-20T14:46:16.810Z,102233.22
2019-03-20T14:48:45.411Z,102230.89
2019-03-20T14:51:14.229Z,102230.39
2019-03-20T14:53:42.802Z,102236.44
2019-03-20T14:56:11.605Z,102236.58
2019-03-20T14:58:40.377Z,102233.05
2019-03-20T15:01:08.960Z,102236.76
2019-03-20T15:03:37.633Z,102235.91
2019-03-20T15:06:06.320Z,102242.80
2019-03-20T15:08:34.920Z,102240.47
2019-03-20T15:11:03.543Z,102251.05
2019-03-20T15:13:32.161Z,102256.75
2019-03-20T15:16:04.718Z,102254.90
2019-03-20T15:18:33.343Z,102250.87
2019-03-20T15:21:01.957Z,102240.62
2019-03-20T15:23:30.535Z,102244.16
2019-03-20T15:25:59.189Z,102247.83
2019-03-20T15:28:27.788Z,102245.32
2019-03-20T15:30:56.387Z,102248.19
2019-03-20T15:33:25.015Z,102235.06
2019-03-20T15:35:53.633Z,102227.18
2019-03-20T15:38:22.329Z,102227.85
2019-03-20T15:40:56.226Z,102228.20
2019-03-20T15:43:21.393Z,102223.50
2019-03-20T15:45:50.145Z,102223.33
2019-03-20T15:48:18.744Z,102229.55
2019-03-20T15:50:47.442Z,102226.86
2019-03-20T15:53:16.099Z,102227.18
2019-03-20T15:55:44.768Z,102224.67
2019-03-20T15:58:13.392Z,102216.11
2019-03-20T16:00:42.014Z,102231.56
2019-03-20T16:03:12.933Z,102225.16
2019-03-20T16:05:41.643Z,102226.19
2019-03-20T16:08:10.256Z,102221.48
2019-03-20T16:10:38.941Z,102217.59
2019-03-20T16:13:07.544Z,102218.62
2019-03-20T16:15:36.235Z,102215.93
2019-03-20T16:18:05.064Z,102221.13
2019-03-20T16:20:33.675Z,102217.95
2019-03-20T16:23:02.274Z,102225.33
2019-03-20T16:25:30.905Z,102211.39
2019-03-20T16:27:59.558Z,102215.06
2019-03-20T16:30:28.195Z,102214.05
2019-03-20T16:32:56.868Z,102214.22
2019-03-20T16:35:25.608Z,102215.56
2019-03-20T16:37:54.317Z,102207.19
2019-03-20T16:40:23.936Z,102209.52
2019-03-20T16:42:52.600Z,102210.68
2019-03-20T16:45:23.335Z,102211.70
2019-03-20T16:47:51.957Z,102214.82
2019-03-20T16:50:20.677Z,102213.64
2019-03-20T16:52:49.529Z,102209.81
2019-03-20T16:55:18.348Z,102209.45
2019-03-20T16:57:46.988Z,102209.91
2019-03-20T17:00:18.531Z,102213.08
2019-03-20T17:02:47.140Z,102216.78
2019-03-20T17:05:15.835Z,102211.05
2019-03-20T17:07:44.450Z,102212.72
2019-03-20T17:10:21.461Z,102212.20
2019-03-20T17:12:50.099Z,102223.02
2019-03-20T17:15:23.829Z,102214.76
2019-03-20T17:17:52.540Z,102215.56
2019-03-20T17:20:21.244Z,102218.70
2019-03-20T17:22:49.930Z,102215.97
2019-03-20T17:25:18.554Z,102223.48
2019-03-20T17:27:47.246Z,102219.33
2019-03-20T17:30:20.981Z,102224.44
2019-03-20T17:32:49.608Z,102222.22
2019-03-20T17:35:18.254Z,102227.58
2019-03-20T17:37:46.944Z,102229.95
2019-03-20T17:40:16.539Z,102228.59
2019-03-20T17:42:45.141Z,102225.99
2019-03-20T17:45:14.829Z,102229.69
2019-03-20T17:47:43.597Z,102231.18
2019-03-20T17:50:15.209Z,102232.63
2019-03-20T17:52:45.255Z,102233.72
2019-03-20T17:55:14.101Z,102238.88
2019-03-20T17:57:42.735Z,102245.95
2019-03-20T18:00:16.947Z,102247.30
2019-03-20T18:02:45.637Z,102248.86
2019-03-20T18:05:14.452Z,102248.11
2019-03-20T18:07:43.129Z,102251.58
2019-03-20T18:10:11.767Z,102252.04
2019-03-20T18:12:40.437Z,102255.84
2019-03-20T18:15:10.776Z,102258.78
2019-03-20T18:17:39.498Z,102257.17
2019-03-20T18:20:09.336Z,102261.91
2019-03-20T18:22:37.943Z,102270.70
2019-03-20T18:25:07.155Z,102268.25
2019-03-20T18:27:35.756Z,102274.79
2019-03-20T18:30:06.465Z,102281.25
2019-03-20T18:32:35.086Z,102278.44
2019-03-20T18:35:03.884Z,102276.11
2019-03-20T18:37:32.517Z,102275.11
2019-03-20T18:40:01.140Z,102278.81
2019-03-20T18:42:29.756Z,102282.95
2019-03-20T18:44:58.415Z,102287.14
2019-03-20T18:47:27.040Z,102288.92
2019-03-20T18:49:55.683Z,102287.70
2019-03-20T18:52:24.280Z,102287.11
2019-03-20T18:54:52.907Z,102290.00
2019-03-20T18:57:21.563Z,102289.66
2019-03-20T18:59:50.244Z,102297.73
2019-03-20T19:02:18.899Z,102293.47
2019-03-20T19:04:47.516Z,102293.61
2019-03-20T19:07:16.218Z,102301.91
2019-03-20T19:09:44.894Z,102300.87
2019-03-20T19:12:13.515Z,102293.98
2019-03-20T19:14:42.135Z,102294.74
2019-03-20T19:17:10.789Z,102298.63
2019-03-20T19:19:39.477Z,102294.69
2019-03-20T19:22:08.086Z,102295.44
2019-03-20T19:24:36.707Z,102306.56
2019-03-20T19:27:05.390Z,102301.62
2019-03-20T19:29:34.048Z,102300.09
2019-03-20T19:32:02.635Z,102299.34
2019-03-20T19:34:31.327Z,102309.16
2019-03-20T19:36:59.963Z,102311.86
2019-03-20T19:39:28.659Z,102310.67
2019-03-20T19:41:57.416Z,102316.90
2019-03-20T19:44:26.063Z,102308.14
2019-03-20T19:46:56.812Z,102315.81
2019-03-20T19:50:02.757Z,102316.42
2019-03-20T19:52:38.649Z,102317.25
2019-03-20T19:55:13.339Z,102319.54
2019-03-20T19:57:44.560Z,102322.06
2019-03-20T20:00:17.822Z,102327.40
2019-03-20T20:02:47.331Z,102331.74
2019-03-20T20:05:19.144Z,102320.39
2019-03-20T20:07:51.611Z,102319.92
2019-03-20T20:10:21.605Z,102323.42
2019-03-20T20:12:55.654Z,102325.59
2019-03-20T20:15:27.252Z,102326.92
2019-03-20T20:17:56.388Z,102329.09
2019-03-20T20:20:27.099Z,102334.55
2019-03-20T20:22:56.109Z,102342.27
2019-03-20T20:25:32.072Z,102331.63
2019-03-20T20:28:17.544Z,102335.14
2019-03-20T20:31:04.178Z,102337.20
2019-03-20T20:33:52.326Z,102337.20
2019-03-20T20:36:43.857Z,102341.34
2019-03-20T20:39:21.965Z,102338.89
2019-03-20T20:41:51.341Z,102353.94
2019-03-20T20:44:20.732Z,102350.53
2019-03-20T20:46:52.051Z,102348.41
2019-03-20T20:49:24.558Z,102348.02
2019-03-20T20:51:55.217Z,102349.31
2019-03-20T20:54:42.114Z,102355.02
2019-03-20T20:57:15.683Z,102356.41
2019-03-20T20:59:44.954Z,102352.69
2019-03-20T21:02:17.030Z,102348.81
2019-03-20T21:04:47.479Z,102355.14
2019-03-20T21:07:17.764Z,102350.41
2019-03-20T21:09:52.083Z,102350.47
2019-03-20T21:12:43.013Z,102354.52
2019-03-20T21:15:46.246Z,102353.55
2019-03-20T21:18:59.744Z,102355.30
2019-03-20T21:21:50.383Z,102356.48
2019-03-20T21:24:28.995Z,102347.85
2019-03-20T21:27:45.919Z,102348.27
2019-03-20T21:31:02.523Z,102352.41
2019-03-20T21:34:34.875Z,102361.91
2019-03-20T21:37:53.297Z,102353.50
2019-03-20T21:40:24.434Z,102351.59
2019-03-20T21:43:29.710Z,102355.29
2019-03-20T21:46:31.352Z,102354.16
2019-03-20T21:49:02.865Z,102355.70
2019-03-20T21:51:42.722Z,102360.06
2019-03-20T21:54:59.751Z,102362.63
2019-03-20T21:58:00.428Z,102365.78
2019-03-20T22:01:03.450Z,102365.87
2019-03-20T22:03:33.798Z,102357.86
2019-03-20T22:06:41.209Z,102368.33
2019-03-20T22:09:29.452Z,102365.88
2019-03-20T22:12:38.419Z,102367.91
2019-03-20T22:15:36.751Z,102368.10
2019-03-20T22:18:29.849Z,102369.11
2019-03-20T22:21:12.489Z,102361.16
2019-03-20T22:24:52.189Z,102363.51
2019-03-20T22:28:01.648Z,102369.59
2019-03-20T22:30:40.230Z,102366.51
2019-03-20T22:33:45.241Z,102365.84
2019-03-20T22:36:23.935Z,102359.84
2019-03-20T22:39:42.939Z,102364.45
2019-03-20T22:42:18.528Z,102370.42
2019-03-20T22:45:01.066Z,102357.61
2019-03-20T22:48:13.017Z,102353.75
2019-03-20T22:57:54.149Z,102353.84
2019-03-20T23:00:25.521Z,102358.75
2019-03-20T23:03:06.040Z,102351.62
2019-03-20T23:05:44.785Z,102354.59
2019-03-20T23:08:17.660Z,102357.88
2019-03-20T23:10:50.542Z,102359.96
2019-03-20T23:13:42.034Z,102360.12
2019-03-20T23:16:14.933Z,102358.34
2019-03-20T23:18:53.530Z,102354.84
2019-03-20T23:21:44.970Z,102350.07
2019-03-20T23:24:26.632Z,102347.89
2019-03-20T23:26:57.977Z,102349.33
2019-03-20T23:29:32.731Z,102352.71
2019-03-20T23:32:06.402Z,102350.83
2019-03-20T23:37:38.696Z,102349.53
2019-03-20T23:40:16.018Z,102348.86
2019-03-20T23:43:08.857Z,102344.78
2019-03-20T23:45:43.051Z,102343.88
2019-03-20T23:48:29.881Z,102346.16
2019-03-20T23:51:14.605Z,102354.70
2019-03-20T23:53:47.252Z,102349.60
2019-03-20T23:56:16.479Z,102360.00
2019-03-20T23:58:45.773Z,102352.49
